sensor_id;sensor_type;location;lat;lon;timestamp;temperature;humidity
20358;DHT22;75325;47.812;13.026;2024-01-15T00:00:10;5.60;56.20
20358;DHT22;75325;47.812;13.026;2024-01-15T00:02:38;5.70;55.90
20358;DHT22;75325;47.812;13.026;2024-01-15T00:05:08;5.70;55.70
20358;DHT22;75325;47.812;13.026;2024-01-15T00:07:37;5.60;55.60
20358;DHT22;75325;47.812;13.026;2024-01-15T00:10:06;5.60;56.40
20358;DHT22;75325;47.812;13.026;2024-01-15T00:12:34;5.70;55.80
20358;DHT22;75325;47.812;13.026;2024-01-15T00:15:02;5.70;55.80
20358;DHT22;75325;47.812;13.026;2024-01-15T00:17:32;5.70;56.00
20358;DHT22;75325;47.812;13.026;2024-01-15T00:20:00;5.70;55.60
20358;DHT22;75325;47.812;13.026;2024-01-15T00:22:30;5.70;55.70
20358;DHT22;75325;47.812;13.026;2024-01-15T00:24:59;5.60;55.60
20358;DHT22;75325;47.812;13.026;2024-01-15T00:27:27;5.60;55.60
20358;DHT22;75325;47.812;13.026;2024-01-15T00:29:55;5.50;55.60
20358;DHT22;75325;47.812;13.026;2024-01-15T00:32:24;5.50;55.70
20358;DHT22;75325;47.812;13.026;2024-01-15T00:34:52;5.40;55.70
20358;DHT22;75325;47.812;13.026;2024-01-15T00:37:20;5.40;55.70
20358;DHT22;75325;47.812;13.026;2024-01-15T00:39:50;5.50;55.90
20358;DHT22;75325;47.812;13.026;2024-01-15T00:42:18;5.40;55.70
20358;DHT22;75325;47.812;13.026;2024-01-15T00:44:47;5.60;55.70
20358;DHT22;75325;47.812;13.026;2024-01-15T00:47:15;5.70;55.70
20358;DHT22;75325;47.812;13.026;2024-01-15T00:49:44;5.70;55.60
20358;DHT22;75325;47.812;13.026;2024-01-15T00:52:12;5.70;55.70
20358;DHT22;75325;47.812;13.026;2024-01-15T00:54:41;5.80;55.70
20358;DHT22;75325;47.812;13.026;2024-01-15T00:57:10;5.90;55.60
20358;DHT22;75325;47.812;13.026;2024-01-15T00:59:39;5.80;55.50
20358;DHT22;75325;47.812;13.026;2024-01-15T01:02:07;5.90;55.50
20358;DHT22;75325;47.812;13.026;2024-01-15T01:04:36;5.90;55.60
20358;DHT22;75325;47.812;13.026;2024-01-15T01:07:04;5.90;55.40
20358;DHT22;75325;47.812;13.026;2024-01-15T01:09:32;5.90;55.50
20358;DHT22;75325;47.812;13.026;2024-01-15T01:12:01;5.90;55.40
20358;DHT22;75325;47.812;13.026;2024-01-15T01:14:31;5.90;55.40
20358;DHT22;75325;47.812;13.026;2024-01-15T01:17:00;6.00;55.50
20358;DHT22;75325;47.812;13.026;2024-01-15T01:19:28;6.00;55.80
20358;DHT22;75325;47.812;13.026;2024-01-15T01:21:57;6.00;56.10
20358;DHT22;75325;47.812;13.026;2024-01-15T01:24:26;6.00;55.40
20358;DHT22;75325;47.812;13.026;2024-01-15T01:26:54;6.00;55.50
20358;DHT22;75325;47.812;13.026;2024-01-15T01:29:22;6.10;55.50
20358;DHT22;75325;47.812;13.026;2024-01-15T01:31:52;6.10;55.40
20358;DHT22;75325;47.812;13.026;2024-01-15T01:34:20;6.10;55.40
20358;DHT22;75325;47.812;13.026;2024-01-15T01:36:48;6.00;55.40
20358;DHT22;75325;47.812;13.026;2024-01-15T01:39:17;6.00;55.40
20358;DHT22;75325;47.812;13.026;2024-01-15T01:41:46;6.10;55.40
20358;DHT22;75325;47.812;13.026;2024-01-15T01:44:14;6.10;55.40
20358;DHT22;75325;47.812;13.026;2024-01-15T01:46:43;6.10;55.40
20358;DHT22;75325;47.812;13.026;2024-01-15T01:49:12;6.10;55.30
20358;DHT22;75325;47.812;13.026;2024-01-15T01:51:41;6.00;55.40
20358;DHT22;75325;47.812;13.026;2024-01-15T01:54:10;6.00;55.40
20358;DHT22;75325;47.812;13.026;2024-01-15T01:56:41;6.00;55.30
20358;DHT22;75325;47.812;13.026;2024-01-15T01:59:11;5.90;55.30
20358;DHT22;75325;47.812;13.026;2024-01-15T02:01:41;5.80;55.20
20358;DHT22;75325;47.812;13.026;2024-01-15T02:04:12;5.70;55.20
20358;DHT22;75325;47.812;13.026;2024-01-15T02:06:43;5.60;55.30
20358;DHT22;75325;47.812;13.026;2024-01-15T02:09:12;5.60;55.50
20358;DHT22;75325;47.812;13.026;2024-01-15T02:11:42;5.60;55.60
20358;DHT22;75325;47.812;13.026;2024-01-15T02:14:10;5.60;55.70
20358;DHT22;75325;47.812;13.026;2024-01-15T02:16:39;5.70;55.60
20358;DHT22;75325;47.812;13.026;2024-01-15T02:19:07;5.80;55.60
20358;DHT22;75325;47.812;13.026;2024-01-15T02:21:36;5.90;55.60
20358;DHT22;75325;47.812;13.026;2024-01-15T02:24:06;6.00;55.60
20358;DHT22;75325;47.812;13.026;2024-01-15T02:26:35;6.00;55.50
20358;DHT22;75325;47.812;13.026;2024-01-15T02:29:05;6.00;55.50
20358;DHT22;75325;47.812;13.026;2024-01-15T02:31:35;6.00;55.60
20358;DHT22;75325;47.812;13.026;2024-01-15T02:34:04;6.00;55.70
20358;DHT22;75325;47.812;13.026;2024-01-15T02:36:33;6.10;55.80
20358;DHT22;75325;47.812;13.026;2024-01-15T02:39:01;6.20;55.90
20358;DHT22;75325;47.812;13.026;2024-01-15T02:41:31;6.20;55.80
20358;DHT22;75325;47.812;13.026;2024-01-15T02:43:59;6.20;55.80
20358;DHT22;75325;47.812;13.026;2024-01-15T02:46:28;6.20;55.90
20358;DHT22;75325;47.812;13.026;2024-01-15T02:48:56;6.20;55.80
20358;DHT22;75325;47.812;13.026;2024-01-15T02:51:24;6.20;55.90
20358;DHT22;75325;47.812;13.026;2024-01-15T02:53:53;6.20;55.90
20358;DHT22;75325;47.812;13.026;2024-01-15T02:56:21;6.20;56.00
20358;DHT22;75325;47.812;13.026;2024-01-15T02:58:51;6.20;56.10
20358;DHT22;75325;47.812;13.026;2024-01-15T03:01:19;6.10;56.10
20358;DHT22;75325;47.812;13.026;2024-01-15T03:03:47;6.10;56.10
20358;DHT22;75325;47.812;13.026;2024-01-15T03:06:16;6.10;56.20
20358;DHT22;75325;47.812;13.026;2024-01-15T03:08:44;6.00;56.20
20358;DHT22;75325;47.812;13.026;2024-01-15T03:11:12;6.00;56.40
20358;DHT22;75325;47.812;13.026;2024-01-15T03:13:41;6.00;56.40
20358;DHT22;75325;47.812;13.026;2024-01-15T03:16:10;6.00;56.50
20358;DHT22;75325;47.812;13.026;2024-01-15T03:18:39;6.00;56.50
20358;DHT22;75325;47.812;13.026;2024-01-15T03:21:08;6.00;56.50
20358;DHT22;75325;47.812;13.026;2024-01-15T03:23:36;5.90;56.50
20358;DHT22;75325;47.812;13.026;2024-01-15T03:26:05;5.90;56.50
20358;DHT22;75325;47.812;13.026;2024-01-15T03:28:33;5.90;56.60
20358;DHT22;75325;47.812;13.026;2024-01-15T03:31:01;6.00;56.70
20358;DHT22;75325;47.812;13.026;2024-01-15T03:33:31;5.90;56.70
20358;DHT22;75325;47.812;13.026;2024-01-15T03:35:59;6.00;56.90
20358;DHT22;75325;47.812;13.026;2024-01-15T03:38:28;6.00;56.80
20358;DHT22;75325;47.812;13.026;2024-01-15T03:40:57;5.90;56.80
20358;DHT22;75325;47.812;13.026;2024-01-15T03:43:27;6.00;57.00
20358;DHT22;75325;47.812;13.026;2024-01-15T03:45:55;6.00;57.00
20358;DHT22;75325;47.812;13.026;2024-01-15T03:48:24;6.00;57.00
20358;DHT22;75325;47.812;13.026;2024-01-15T03:50:53;6.00;57.00
20358;DHT22;75325;47.812;13.026;2024-01-15T03:53:22;6.00;57.00
20358;DHT22;75325;47.812;13.026;2024-01-15T03:55:50;6.10;57.00
20358;DHT22;75325;47.812;13.026;2024-01-15T03:58:19;6.20;57.00
20358;DHT22;75325;47.812;13.026;2024-01-15T04:00:47;6.20;56.90
20358;DHT22;75325;47.812;13.026;2024-01-15T04:03:16;6.30;56.90
20358;DHT22;75325;47.812;13.026;2024-01-15T04:05:44;6.40;56.90
20358;DHT22;75325;47.812;13.026;2024-01-15T04:08:14;6.40;56.90
20358;DHT22;75325;47.812;13.026;2024-01-15T04:10:42;6.50;56.90
20358;DHT22;75325;47.812;13.026;2024-01-15T04:13:11;6.50;57.00
20358;DHT22;75325;47.812;13.026;2024-01-15T04:15:39;6.50;56.80
20358;DHT22;75325;47.812;13.026;2024-01-15T04:18:07;6.60;56.80
20358;DHT22;75325;47.812;13.026;2024-01-15T04:20:36;6.60;56.70
20358;DHT22;75325;47.812;13.026;2024-01-15T04:23:05;6.90;57.20
20358;DHT22;75325;47.812;13.026;2024-01-15T04:25:35;6.80;57.00
20358;DHT22;75325;47.812;13.026;2024-01-15T04:28:03;6.80;56.70
20358;DHT22;75325;47.812;13.026;2024-01-15T04:30:32;6.80;56.60
20358;DHT22;75325;47.812;13.026;2024-01-15T04:33:00;6.90;56.60
20358;DHT22;75325;47.812;13.026;2024-01-15T04:35:30;6.90;56.60
20358;DHT22;75325;47.812;13.026;2024-01-15T04:37:59;6.90;56.80
20358;DHT22;75325;47.812;13.026;2024-01-15T04:40:27;7.00;56.50
20358;DHT22;75325;47.812;13.026;2024-01-15T04:42:56;7.00;56.50
20358;DHT22;75325;47.812;13.026;2024-01-15T04:45:25;7.00;56.40
20358;DHT22;75325;47.812;13.026;2024-01-15T04:47:55;7.10;56.40
20358;DHT22;75325;47.812;13.026;2024-01-15T04:50:25;7.10;56.40
20358;DHT22;75325;47.812;13.026;2024-01-15T04:52:53;7.10;56.40
20358;DHT22;75325;47.812;13.026;2024-01-15T04:55:22;7.10;56.40
20358;DHT22;75325;47.812;13.026;2024-01-15T04:57:51;7.20;56.40
20358;DHT22;75325;47.812;13.026;2024-01-15T05:00:21;7.20;56.30
20358;DHT22;75325;47.812;13.026;2024-01-15T05:02:50;7.20;56.70
20358;DHT22;75325;47.812;13.026;2024-01-15T05:05:19;7.30;56.30
20358;DHT22;75325;47.812;13.026;2024-01-15T05:07:48;7.30;56.20
20358;DHT22;75325;47.812;13.026;2024-01-15T05:10:16;7.30;56.10
20358;DHT22;75325;47.812;13.026;2024-01-15T05:12:44;7.30;56.10
20358;DHT22;75325;47.812;13.026;2024-01-15T05:15:13;7.30;56.40
20358;DHT22;75325;47.812;13.026;2024-01-15T05:17:43;7.30;56.10
20358;DHT22;75325;47.812;13.026;2024-01-15T05:20:11;7.30;56.00
20358;DHT22;75325;47.812;13.026;2024-01-15T05:22:40;7.30;56.00
20358;DHT22;75325;47.812;13.026;2024-01-15T05:25:08;7.40;56.10
20358;DHT22;75325;47.812;13.026;2024-01-15T05:27:36;7.40;56.30
20358;DHT22;75325;47.812;13.026;2024-01-15T05:30:06;7.40;56.10
20358;DHT22;75325;47.812;13.026;2024-01-15T05:32:34;7.40;56.00
20358;DHT22;75325;47.812;13.026;2024-01-15T05:35:05;7.40;56.00
20358;DHT22;75325;47.812;13.026;2024-01-15T05:37:33;7.40;56.00
20358;DHT22;75325;47.812;13.026;2024-01-15T05:40:02;7.40;56.00
20358;DHT22;75325;47.812;13.026;2024-01-15T05:42:32;7.40;56.00
20358;DHT22;75325;47.812;13.026;2024-01-15T05:45:01;7.40;55.90
20358;DHT22;75325;47.812;13.026;2024-01-15T05:47:31;7.40;56.00
20358;DHT22;75325;47.812;13.026;2024-01-15T05:50:00;7.50;56.00
20358;DHT22;75325;47.812;13.026;2024-01-15T05:52:31;7.50;55.90
20358;DHT22;75325;47.812;13.026;2024-01-15T05:54:59;7.60;56.00
20358;DHT22;75325;47.812;13.026;2024-01-15T05:57:27;7.60;55.90
20358;DHT22;75325;47.812;13.026;2024-01-15T05:59:56;7.60;55.80
20358;DHT22;75325;47.812;13.026;2024-01-15T06:02:24;7.60;55.70
20358;DHT22;75325;47.812;13.026;2024-01-15T06:04:53;7.70;55.80
20358;DHT22;75325;47.812;13.026;2024-01-15T06:07:22;7.70;55.70
20358;DHT22;75325;47.812;13.026;2024-01-15T06:09:52;7.70;55.70
20358;DHT22;75325;47.812;13.026;2024-01-15T06:12:20;7.70;56.30
20358;DHT22;75325;47.812;13.026;2024-01-15T06:14:49;7.80;55.60
20358;DHT22;75325;47.812;13.026;2024-01-15T06:17:17;7.80;55.60
20358;DHT22;75325;47.812;13.026;2024-01-15T06:19:45;7.80;55.50
20358;DHT22;75325;47.812;13.026;2024-01-15T06:22:14;7.80;55.80
20358;DHT22;75325;47.812;13.026;2024-01-15T06:24:42;7.80;55.50
20358;DHT22;75325;47.812;13.026;2024-01-15T06:27:12;7.90;55.50
20358;DHT22;75325;47.812;13.026;2024-01-15T06:29:45;7.90;55.50
20358;DHT22;75325;47.812;13.026;2024-01-15T06:32:17;7.90;55.40
20358;DHT22;75325;47.812;13.026;2024-01-15T06:34:46;7.90;55.40
20358;DHT22;75325;47.812;13.026;2024-01-15T06:37:14;7.90;55.40
20358;DHT22;75325;47.812;13.026;2024-01-15T06:39:43;7.90;55.30
20358;DHT22;75325;47.812;13.026;2024-01-15T06:42:14;7.90;55.40
20358;DHT22;75325;47.812;13.026;2024-01-15T06:44:42;7.90;55.40
20358;DHT22;75325;47.812;13.026;2024-01-15T06:47:11;7.90;55.40
20358;DHT22;75325;47.812;13.026;2024-01-15T06:49:39;7.90;55.30
20358;DHT22;75325;47.812;13.026;2024-01-15T06:52:07;7.90;55.30
20358;DHT22;75325;47.812;13.026;2024-01-15T06:54:36;7.90;55.30
20358;DHT22;75325;47.812;13.026;2024-01-15T06:57:06;7.90;55.30
20358;DHT22;75325;47.812;13.026;2024-01-15T06:59:36;7.90;55.30
20358;DHT22;75325;47.812;13.026;2024-01-15T07:02:05;8.10;56.00
20358;DHT22;75325;47.812;13.026;2024-01-15T07:04:33;8.20;56.20
20358;DHT22;75325;47.812;13.026;2024-01-15T07:07:02;8.30;55.20
20358;DHT22;75325;47.812;13.026;2024-01-15T07:09:30;8.20;54.90
20358;DHT22;75325;47.812;13.026;2024-01-15T07:11:59;8.20;54.90
20358;DHT22;75325;47.812;13.026;2024-01-15T07:14:27;8.10;54.90
20358;DHT22;75325;47.812;13.026;2024-01-15T07:16:57;8.10;54.90
20358;DHT22;75325;47.812;13.026;2024-01-15T07:19:25;8.10;54.80
20358;DHT22;75325;47.812;13.026;2024-01-15T07:21:54;8.10;54.80
20358;DHT22;75325;47.812;13.026;2024-01-15T07:24:28;8.10;54.70
20358;DHT22;75325;47.812;13.026;2024-01-15T07:26:58;8.10;54.70
20358;DHT22;75325;47.812;13.026;2024-01-15T07:29:29;8.10;54.70
20358;DHT22;75325;47.812;13.026;2024-01-15T07:32:09;8.10;54.70
20358;DHT22;75325;47.812;13.026;2024-01-15T07:34:53;8.10;54.70
20358;DHT22;75325;47.812;13.026;2024-01-15T07:37:24;8.00;54.70
20358;DHT22;75325;47.812;13.026;2024-01-15T07:39:55;8.00;54.70
20358;DHT22;75325;47.812;13.026;2024-01-15T07:42:26;8.00;54.70
20358;DHT22;75325;47.812;13.026;2024-01-15T07:44:54;8.10;55.00
20358;DHT22;75325;47.812;13.026;2024-01-15T07:47:25;8.10;54.70
20358;DHT22;75325;47.812;13.026;2024-01-15T07:49:54;8.10;54.70
20358;DHT22;75325;47.812;13.026;2024-01-15T07:52:30;8.10;54.70
20358;DHT22;75325;47.812;13.026;2024-01-15T07:55:00;8.10;54.70
20358;DHT22;75325;47.812;13.026;2024-01-15T07:57:33;8.10;54.60
20358;DHT22;75325;47.812;13.026;2024-01-15T08:00:04;8.10;54.60
20358;DHT22;75325;47.812;13.026;2024-01-15T08:02:40;8.10;54.60
20358;DHT22;75325;47.812;13.026;2024-01-15T08:05:11;8.10;54.60
20358;DHT22;75325;47.812;13.026;2024-01-15T08:07:40;8.10;54.80
20358;DHT22;75325;47.812;13.026;2024-01-15T08:10:10;8.10;54.70
20358;DHT22;75325;47.812;13.026;2024-01-15T08:12:42;8.10;54.70
20358;DHT22;75325;47.812;13.026;2024-01-15T08:15:11;8.20;54.70
20358;DHT22;75325;47.812;13.026;2024-01-15T08:17:42;8.20;54.60
20358;DHT22;75325;47.812;13.026;2024-01-15T08:20:11;8.30;54.70
20358;DHT22;75325;47.812;13.026;2024-01-15T08:22:40;8.40;54.70
20358;DHT22;75325;47.812;13.026;2024-01-15T08:25:09;8.40;54.50
20358;DHT22;75325;47.812;13.026;2024-01-15T08:27:38;8.40;54.40
20358;DHT22;75325;47.812;13.026;2024-01-15T08:30:09;8.50;54.80
20358;DHT22;75325;47.812;13.026;2024-01-15T08:32:38;8.60;55.00
20358;DHT22;75325;47.812;13.026;2024-01-15T08:35:11;8.80;54.70
20358;DHT22;75325;47.812;13.026;2024-01-15T08:37:40;8.80;54.40
20358;DHT22;75325;47.812;13.026;2024-01-15T08:40:10;8.80;54.30
20358;DHT22;75325;47.812;13.026;2024-01-15T08:42:38;8.80;54.20
20358;DHT22;75325;47.812;13.026;2024-01-15T08:45:08;8.70;54.10
20358;DHT22;75325;47.812;13.026;2024-01-15T08:47:36;8.70;54.10
20358;DHT22;75325;47.812;13.026;2024-01-15T08:50:06;8.70;54.00
20358;DHT22;75325;47.812;13.026;2024-01-15T08:52:39;8.60;54.00
20358;DHT22;75325;47.812;13.026;2024-01-15T08:55:08;8.60;54.40
20358;DHT22;75325;47.812;13.026;2024-01-15T08:57:36;8.70;54.20
20358;DHT22;75325;47.812;13.026;2024-01-15T09:00:05;8.80;54.30
20358;DHT22;75325;47.812;13.026;2024-01-15T09:02:36;8.80;54.20
20358;DHT22;75325;47.812;13.026;2024-01-15T09:05:04;8.80;54.10
20358;DHT22;75325;47.812;13.026;2024-01-15T09:07:33;8.90;54.20
20358;DHT22;75325;47.812;13.026;2024-01-15T09:10:06;8.90;54.10
20358;DHT22;75325;47.812;13.026;2024-01-15T09:12:38;8.90;54.10
20358;DHT22;75325;47.812;13.026;2024-01-15T09:15:09;9.00;54.10
20358;DHT22;75325;47.812;13.026;2024-01-15T09:17:38;8.90;54.00
20358;DHT22;75325;47.812;13.026;2024-01-15T09:20:08;8.90;54.00
20358;DHT22;75325;47.812;13.026;2024-01-15T09:22:38;8.90;54.10
20358;DHT22;75325;47.812;13.026;2024-01-15T09:25:09;8.80;54.00
20358;DHT22;75325;47.812;13.026;2024-01-15T09:27:38;8.80;54.20
20358;DHT22;75325;47.812;13.026;2024-01-15T09:30:08;8.90;54.20
20358;DHT22;75325;47.812;13.026;2024-01-15T09:32:37;9.00;54.20
20358;DHT22;75325;47.812;13.026;2024-01-15T09:35:07;9.10;54.20
20358;DHT22;75325;47.812;13.026;2024-01-15T09:37:36;9.10;54.10
20358;DHT22;75325;47.812;13.026;2024-01-15T09:40:16;9.10;54.00
20358;DHT22;75325;47.812;13.026;2024-01-15T09:42:46;9.00;53.90
20358;DHT22;75325;47.812;13.026;2024-01-15T09:45:15;8.90;54.00
20358;DHT22;75325;47.812;13.026;2024-01-15T09:47:45;8.80;54.10
20358;DHT22;75325;47.812;13.026;2024-01-15T09:50:14;8.80;54.40
20358;DHT22;75325;47.812;13.026;2024-01-15T09:52:43;8.80;54.50
20358;DHT22;75325;47.812;13.026;2024-01-15T09:55:15;8.90;54.70
20358;DHT22;75325;47.812;13.026;2024-01-15T09:57:44;9.00;54.80
20358;DHT22;75325;47.812;13.026;2024-01-15T10:00:17;9.10;54.70
20358;DHT22;75325;47.812;13.026;2024-01-15T10:02:47;9.10;54.60
20358;DHT22;75325;47.812;13.026;2024-01-15T10:05:16;9.10;54.60
20358;DHT22;75325;47.812;13.026;2024-01-15T10:07:46;9.10;54.60
20358;DHT22;75325;47.812;13.026;2024-01-15T10:10:21;9.10;54.40
20358;DHT22;75325;47.812;13.026;2024-01-15T10:12:56;9.00;54.40
20358;DHT22;75325;47.812;13.026;2024-01-15T10:15:26;9.00;54.70
20358;DHT22;75325;47.812;13.026;2024-01-15T10:17:54;9.00;54.70
20358;DHT22;75325;47.812;13.026;2024-01-15T10:20:23;9.00;54.60
20358;DHT22;75325;47.812;13.026;2024-01-15T10:22:55;9.10;54.80
20358;DHT22;75325;47.812;13.026;2024-01-15T10:25:25;9.10;54.70
20358;DHT22;75325;47.812;13.026;2024-01-15T10:28:01;9.10;54.70
20358;DHT22;75325;47.812;13.026;2024-01-15T10:30:30;9.10;54.70
20358;DHT22;75325;47.812;13.026;2024-01-15T10:33:01;9.10;54.70
20358;DHT22;75325;47.812;13.026;2024-01-15T10:35:30;9.10;55.30
20358;DHT22;75325;47.812;13.026;2024-01-15T10:37:59;9.00;54.80
20358;DHT22;75325;47.812;13.026;2024-01-15T10:40:29;9.10;54.90
20358;DHT22;75325;47.812;13.026;2024-01-15T10:42:58;9.20;54.80
20358;DHT22;75325;47.812;13.026;2024-01-15T10:45:27;9.30;54.90
20358;DHT22;75325;47.812;13.026;2024-01-15T10:47:56;9.40;54.90
20358;DHT22;75325;47.812;13.026;2024-01-15T10:50:29;9.50;54.70
20358;DHT22;75325;47.812;13.026;2024-01-15T10:52:58;9.60;54.60
20358;DHT22;75325;47.812;13.026;2024-01-15T10:55:29;9.60;54.70
20358;DHT22;75325;47.812;13.026;2024-01-15T10:58:03;9.80;54.70
20358;DHT22;75325;47.812;13.026;2024-01-15T11:00:33;9.80;54.60
20358;DHT22;75325;47.812;13.026;2024-01-15T11:03:08;9.80;54.60
20358;DHT22;75325;47.812;13.026;2024-01-15T11:05:38;9.80;54.50
20358;DHT22;75325;47.812;13.026;2024-01-15T11:08:08;9.70;54.30
20358;DHT22;75325;47.812;13.026;2024-01-15T11:10:43;9.70;54.40
20358;DHT22;75325;47.812;13.026;2024-01-15T11:13:15;9.60;54.40
20358;DHT22;75325;47.812;13.026;2024-01-15T11:15:57;9.50;54.40
20358;DHT22;75325;47.812;13.026;2024-01-15T11:18:30;9.40;54.40
20358;DHT22;75325;47.812;13.026;2024-01-15T11:21:25;9.30;54.30
20358;DHT22;75325;47.812;13.026;2024-01-15T11:23:55;9.10;54.30
20358;DHT22;75325;47.812;13.026;2024-01-15T11:26:35;9.00;54.60
20358;DHT22;75325;47.812;13.026;2024-01-15T11:29:05;9.00;54.70
20358;DHT22;75325;47.812;13.026;2024-01-15T11:31:57;9.00;54.80
20358;DHT22;75325;47.812;13.026;2024-01-15T11:34:52;9.00;54.80
20358;DHT22;75325;47.812;13.026;2024-01-15T11:37:22;9.00;54.80
20358;DHT22;75325;47.812;13.026;2024-01-15T11:39:53;9.00;54.80
20358;DHT22;75325;47.812;13.026;2024-01-15T11:42:25;8.90;54.80
20358;DHT22;75325;47.812;13.026;2024-01-15T11:44:57;8.90;54.60
20358;DHT22;75325;47.812;13.026;2024-01-15T11:47:56;8.90;55.30
20358;DHT22;75325;47.812;13.026;2024-01-15T11:50:32;9.00;54.90
20358;DHT22;75325;47.812;13.026;2024-01-15T11:53:01;9.10;54.90
20358;DHT22;75325;47.812;13.026;2024-01-15T11:55:35;9.30;54.80
20358;DHT22;75325;47.812;13.026;2024-01-15T11:58:08;9.30;54.50
20358;DHT22;75325;47.812;13.026;2024-01-15T12:00:39;9.40;54.50
20358;DHT22;75325;47.812;13.026;2024-01-15T12:03:09;9.40;54.50
20358;DHT22;75325;47.812;13.026;2024-01-15T12:05:38;9.40;54.30
20358;DHT22;75325;47.812;13.026;2024-01-15T12:08:09;9.40;54.30
20358;DHT22;75325;47.812;13.026;2024-01-15T12:10:39;9.40;54.30
20358;DHT22;75325;47.812;13.026;2024-01-15T12:13:12;9.30;54.10
20358;DHT22;75325;47.812;13.026;2024-01-15T12:15:42;9.30;54.10
20358;DHT22;75325;47.812;13.026;2024-01-15T12:18:12;9.20;54.20
20358;DHT22;75325;47.812;13.026;2024-01-15T12:20:43;9.20;54.10
20358;DHT22;75325;47.812;13.026;2024-01-15T12:23:14;9.20;54.20
20358;DHT22;75325;47.812;13.026;2024-01-15T12:25:44;9.10;54.20
20358;DHT22;75325;47.812;13.026;2024-01-15T12:28:15;9.10;54.20
20358;DHT22;75325;47.812;13.026;2024-01-15T12:30:47;9.00;54.10
20358;DHT22;75325;47.812;13.026;2024-01-15T12:33:18;9.00;54.20
20358;DHT22;75325;47.812;13.026;2024-01-15T12:35:48;9.00;54.30
20358;DHT22;75325;47.812;13.026;2024-01-15T12:38:19;9.00;54.30
20358;DHT22;75325;47.812;13.026;2024-01-15T12:40:48;9.00;54.50
20358;DHT22;75325;47.812;13.026;2024-01-15T12:43:19;9.10;54.30
20358;DHT22;75325;47.812;13.026;2024-01-15T12:45:47;9.20;54.30
20358;DHT22;75325;47.812;13.026;2024-01-15T12:48:16;9.20;54.30
20358;DHT22;75325;47.812;13.026;2024-01-15T12:50:48;9.30;54.20
20358;DHT22;75325;47.812;13.026;2024-01-15T12:53:17;9.20;54.00
20358;DHT22;75325;47.812;13.026;2024-01-15T12:55:46;9.20;54.00
20358;DHT22;75325;47.812;13.026;2024-01-15T12:58:15;9.20;54.00
20358;DHT22;75325;47.812;13.026;2024-01-15T13:00:49;9.20;54.10
20358;DHT22;75325;47.812;13.026;2024-01-15T13:03:19;9.20;54.10
20358;DHT22;75325;47.812;13.026;2024-01-15T13:05:48;9.10;54.10
20358;DHT22;75325;47.812;13.026;2024-01-15T13:08:17;9.10;54.20
20358;DHT22;75325;47.812;13.026;2024-01-15T13:10:46;9.10;54.10
20358;DHT22;75325;47.812;13.026;2024-01-15T13:13:14;9.10;54.10
20358;DHT22;75325;47.812;13.026;2024-01-15T13:15:43;9.10;54.10
20358;DHT22;75325;47.812;13.026;2024-01-15T13:18:13;9.10;54.10
20358;DHT22;75325;47.812;13.026;2024-01-15T13:20:42;9.10;54.10
20358;DHT22;75325;47.812;13.026;2024-01-15T13:23:10;9.10;54.10
20358;DHT22;75325;47.812;13.026;2024-01-15T13:25:39;9.10;54.10
20358;DHT22;75325;47.812;13.026;2024-01-15T13:28:07;9.00;54.00
20358;DHT22;75325;47.812;13.026;2024-01-15T13:30:36;8.90;54.00
20358;DHT22;75325;47.812;13.026;2024-01-15T13:33:05;8.90;54.20
20358;DHT22;75325;47.812;13.026;2024-01-15T13:35:37;8.90;54.10
20358;DHT22;75325;47.812;13.026;2024-01-15T13:38:05;8.90;54.10
20358;DHT22;75325;47.812;13.026;2024-01-15T13:40:36;8.90;54.30
20358;DHT22;75325;47.812;13.026;2024-01-15T13:43:04;8.90;54.20
20358;DHT22;75325;47.812;13.026;2024-01-15T13:45:35;8.90;54.20
20358;DHT22;75325;47.812;13.026;2024-01-15T13:48:05;8.90;54.30
20358;DHT22;75325;47.812;13.026;2024-01-15T13:50:38;8.80;54.20
20358;DHT22;75325;47.812;13.026;2024-01-15T13:53:06;8.90;54.20
20358;DHT22;75325;47.812;13.026;2024-01-15T13:55:37;8.80;54.20
20358;DHT22;75325;47.812;13.026;2024-01-15T13:58:06;8.70;54.20
20358;DHT22;75325;47.812;13.026;2024-01-15T14:00:36;8.60;54.00
20358;DHT22;75325;47.812;13.026;2024-01-15T14:03:06;8.40;54.10
20358;DHT22;75325;47.812;13.026;2024-01-15T14:05:36;8.30;54.20
20358;DHT22;75325;47.812;13.026;2024-01-15T14:08:06;8.10;54.60
20358;DHT22;75325;47.812;13.026;2024-01-15T14:10:35;8.00;54.40
20358;DHT22;75325;47.812;13.026;2024-01-15T14:13:04;7.90;54.70
20358;DHT22;75325;47.812;13.026;2024-01-15T14:15:33;7.90;54.80
20358;DHT22;75325;47.812;13.026;2024-01-15T14:18:01;8.00;55.00
20358;DHT22;75325;47.812;13.026;2024-01-15T14:20:30;8.00;54.90
20358;DHT22;75325;47.812;13.026;2024-01-15T14:23:00;8.00;54.70
20358;DHT22;75325;47.812;13.026;2024-01-15T14:25:28;7.90;54.70
20358;DHT22;75325;47.812;13.026;2024-01-15T14:27:57;7.90;54.80
20358;DHT22;75325;47.812;13.026;2024-01-15T14:30:27;7.90;54.90
20358;DHT22;75325;47.812;13.026;2024-01-15T14:32:55;7.90;55.00
20358;DHT22;75325;47.812;13.026;2024-01-15T14:35:24;7.90;54.80
20358;DHT22;75325;47.812;13.026;2024-01-15T14:37:52;7.80;54.80
20358;DHT22;75325;47.812;13.026;2024-01-15T14:40:23;7.80;55.00
20358;DHT22;75325;47.812;13.026;2024-01-15T14:42:52;7.70;54.90
20358;DHT22;75325;47.812;13.026;2024-01-15T14:45:21;7.70;54.90
20358;DHT22;75325;47.812;13.026;2024-01-15T14:47:49;7.60;55.00
20358;DHT22;75325;47.812;13.026;2024-01-15T14:50:18;7.60;55.70
20358;DHT22;75325;47.812;13.026;2024-01-15T14:52:47;7.60;55.10
20358;DHT22;75325;47.812;13.026;2024-01-15T14:55:15;7.50;55.00
20358;DHT22;75325;47.812;13.026;2024-01-15T14:57:45;7.50;55.00
20358;DHT22;75325;47.812;13.026;2024-01-15T15:00:14;7.50;55.10
20358;DHT22;75325;47.812;13.026;2024-01-15T15:02:44;7.50;55.10
20358;DHT22;75325;47.812;13.026;2024-01-15T15:05:14;7.50;55.20
20358;DHT22;75325;47.812;13.026;2024-01-15T15:07:44;7.50;55.10
20358;DHT22;75325;47.812;13.026;2024-01-15T15:10:12;7.50;55.10
20358;DHT22;75325;47.812;13.026;2024-01-15T15:12:42;7.50;55.10
20358;DHT22;75325;47.812;13.026;2024-01-15T15:15:12;7.50;55.30
20358;DHT22;75325;47.812;13.026;2024-01-15T15:17:47;7.60;55.30
20358;DHT22;75325;47.812;13.026;2024-01-15T15:20:16;7.60;55.20
20358;DHT22;75325;47.812;13.026;2024-01-15T15:22:46;7.70;55.30
20358;DHT22;75325;47.812;13.026;2024-01-15T15:25:14;7.80;55.20
20358;DHT22;75325;47.812;13.026;2024-01-15T15:27:43;7.90;55.20
20358;DHT22;75325;47.812;13.026;2024-01-15T15:30:14;7.90;55.10
20358;DHT22;75325;47.812;13.026;2024-01-15T15:32:43;7.90;55.10
20358;DHT22;75325;47.812;13.026;2024-01-15T15:35:11;8.00;55.20
20358;DHT22;75325;47.812;13.026;2024-01-15T15:37:41;8.00;55.00
20358;DHT22;75325;47.812;13.026;2024-01-15T15:40:10;8.10;55.00
20358;DHT22;75325;47.812;13.026;2024-01-15T15:42:40;8.10;54.90
20358;DHT22;75325;47.812;13.026;2024-01-15T15:45:14;8.10;54.90